sensor_id;sensor_type;location;lat;lon;timestamp;temperature;humidity
50969;DHT22;36982;51.474;7.228;2023-04-01T00:02:07;9.70;99.90
50969;DHT22;36982;51.474;7.228;2023-04-01T00:04:32;9.70;99.90
50969;DHT22;36982;51.474;7.228;2023-04-01T00:06:58;9.70;99.90
50969;DHT22;36982;51.474;7.228;2023-04-01T00:09:25;9.60;99.90
50969;DHT22;36982;51.474;7.228;2023-04-01T00:11:51;9.60;99.90
50969;DHT22;36982;51.474;7.228;2023-04-01T00:14:17;9.60;99.90
50969;DHT22;36982;51.474;7.228;2023-04-01T00:16:42;9.60;99.90
50969;DHT22;36982;51.474;7.228;2023-04-01T00:19:08;9.60;99.90
50969;DHT22;36982;51.474;7.228;2023-04-01T00:21:34;9.50;99.90
50969;DHT22;36982;51.474;7.228;2023-04-01T00:23:59;9.60;99.90
50969;DHT22;36982;51.474;7.228;2023-04-01T00:26:25;9.50;99.90
50969;DHT22;36982;51.474;7.228;2023-04-01T00:28:51;9.50;99.90
50969;DHT22;36982;51.474;7.228;2023-04-01T00:31:17;9.50;99.90
50969;DHT22;36982;51.474;7.228;2023-04-01T00:33:43;9.50;99.90
50969;DHT22;36982;51.474;7.228;2023-04-01T00:36:13;9.50;99.90
50969;DHT22;36982;51.474;7.228;2023-04-01T00:38:40;9.40;99.90
50969;DHT22;36982;51.474;7.228;2023-04-01T00:41:06;9.40;99.90
50969;DHT22;36982;51.474;7.228;2023-04-01T00:43:33;9.40;99.90
50969;DHT22;36982;51.474;7.228;2023-04-01T00:45:59;9.40;99.90
50969;DHT22;36982;51.474;7.228;2023-04-01T00:48:28;9.40;99.90
50969;DHT22;36982;51.474;7.228;2023-04-01T00:51:08;9.50;99.90
50969;DHT22;36982;51.474;7.228;2023-04-01T00:53:38;9.60;99.90
50969;DHT22;36982;51.474;7.228;2023-04-01T00:56:10;9.40;99.90
50969;DHT22;36982;51.474;7.228;2023-04-01T00:58:42;9.50;99.90
50969;DHT22;36982;51.474;7.228;2023-04-01T01:01:08;9.50;99.90
50969;DHT22;36982;51.474;7.228;2023-04-01T01:03:34;9.50;99.90
50969;DHT22;36982;51.474;7.228;2023-04-01T01:11:08;9.30;99.90
50969;DHT22;36982;51.474;7.228;2023-04-01T01:13:42;9.40;99.90
50969;DHT22;36982;51.474;7.228;2023-04-01T01:16:24;9.50;99.90
50969;DHT22;36982;51.474;7.228;2023-04-01T01:22:10;9.30;99.90
50969;DHT22;36982;51.474;7.228;2023-04-01T01:25:07;9.40;99.90
50969;DHT22;36982;51.474;7.228;2023-04-01T01:27:37;9.40;99.90
50969;DHT22;36982;51.474;7.228;2023-04-01T01:30:35;9.30;99.90
50969;DHT22;36982;51.474;7.228;2023-04-01T01:35:53;9.30;99.90
50969;DHT22;36982;51.474;7.228;2023-04-01T01:38:23;9.30;99.90
50969;DHT22;36982;51.474;7.228;2023-04-01T01:40:50;9.40;99.90
50969;DHT22;36982;51.474;7.228;2023-04-01T01:43:22;9.30;99.90
50969;DHT22;36982;51.474;7.228;2023-04-01T01:45:55;9.40;99.90
50969;DHT22;36982;51.474;7.228;2023-04-01T01:48:23;9.30;99.90
50969;DHT22;36982;51.474;7.228;2023-04-01T01:50:50;9.40;99.90
50969;DHT22;36982;51.474;7.228;2023-04-01T01:53:16;9.30;99.90
50969;DHT22;36982;51.474;7.228;2023-04-01T01:55:45;9.30;99.90
50969;DHT22;36982;51.474;7.228;2023-04-01T01:58:13;9.30;99.90
50969;DHT22;36982;51.474;7.228;2023-04-01T02:00:44;9.30;99.90
50969;DHT22;36982;51.474;7.228;2023-04-01T02:03:13;9.30;99.90
50969;DHT22;36982;51.474;7.228;2023-04-01T02:05:40;9.30;99.90
50969;DHT22;36982;51.474;7.228;2023-04-01T02:08:16;9.40;99.90
50969;DHT22;36982;51.474;7.228;2023-04-01T02:10:49;9.30;99.90
50969;DHT22;36982;51.474;7.228;2023-04-01T02:13:25;9.30;99.90
50969;DHT22;36982;51.474;7.228;2023-04-01T02:15:55;9.30;99.90
50969;DHT22;36982;51.474;7.228;2023-04-01T02:18:22;9.30;99.90
50969;DHT22;36982;51.474;7.228;2023-04-01T02:20:49;9.30;99.90
50969;DHT22;36982;51.474;7.228;2023-04-01T02:23:15;9.30;99.90
50969;DHT22;36982;51.474;7.228;2023-04-01T02:25:41;9.20;99.90
50969;DHT22;36982;51.474;7.228;2023-04-01T02:28:09;9.30;99.90
50969;DHT22;36982;51.474;7.228;2023-04-01T02:30:38;9.30;99.90
50969;DHT22;36982;51.474;7.228;2023-04-01T02:33:05;9.30;99.90
50969;DHT22;36982;51.474;7.228;2023-04-01T02:35:36;9.30;99.90
50969;DHT22;36982;51.474;7.228;2023-04-01T02:38:03;9.30;99.90
50969;DHT22;36982;51.474;7.228;2023-04-01T02:40:29;9.30;99.90
50969;DHT22;36982;51.474;7.228;2023-04-01T02:42:54;9.30;99.90
50969;DHT22;36982;51.474;7.228;2023-04-01T02:45:20;9.30;99.90
50969;DHT22;36982;51.474;7.228;2023-04-01T02:47:45;9.40;99.90
50969;DHT22;36982;51.474;7.228;2023-04-01T02:50:11;9.20;99.90
50969;DHT22;36982;51.474;7.228;2023-04-01T02:52:37;9.20;99.90
50969;DHT22;36982;51.474;7.228;2023-04-01T02:55:03;9.20;99.90
50969;DHT22;36982;51.474;7.228;2023-04-01T02:57:29;9.20;99.90
50969;DHT22;36982;51.474;7.228;2023-04-01T02:59:55;9.20;99.90
50969;DHT22;36982;51.474;7.228;2023-04-01T03:02:21;9.10;99.90
50969;DHT22;36982;51.474;7.228;2023-04-01T03:04:46;9.20;99.90
50969;DHT22;36982;51.474;7.228;2023-04-01T03:07:12;9.20;99.90
50969;DHT22;36982;51.474;7.228;2023-04-01T03:09:38;9.20;99.90
50969;DHT22;36982;51.474;7.228;2023-04-01T03:12:04;9.20;99.90
50969;DHT22;36982;51.474;7.228;2023-04-01T03:14:30;9.20;99.90
50969;DHT22;36982;51.474;7.228;2023-04-01T03:16:55;9.20;99.90
50969;DHT22;36982;51.474;7.228;2023-04-01T03:19:21;9.20;99.90
50969;DHT22;36982;51.474;7.228;2023-04-01T03:21:47;9.30;99.90
50969;DHT22;36982;51.474;7.228;2023-04-01T03:24:12;9.30;99.90
50969;DHT22;36982;51.474;7.228;2023-04-01T03:26:38;9.40;99.90
50969;DHT22;36982;51.474;7.228;2023-04-01T03:29:03;9.30;99.90
50969;DHT22;36982;51.474;7.228;2023-04-01T03:31:30;9.40;99.90
50969;DHT22;36982;51.474;7.228;2023-04-01T03:33:55;9.30;99.90
50969;DHT22;36982;51.474;7.228;2023-04-01T03:36:21;9.50;99.90
50969;DHT22;36982;51.474;7.228;2023-04-01T03:38:47;9.30;99.90
50969;DHT22;36982;51.474;7.228;2023-04-01T03:41:14;9.30;99.90
50969;DHT22;36982;51.474;7.228;2023-04-01T03:43:40;9.20;99.90
50969;DHT22;36982;51.474;7.228;2023-04-01T03:46:05;9.30;99.90
50969;DHT22;36982;51.474;7.228;2023-04-01T03:48:31;9.20;99.90
50969;DHT22;36982;51.474;7.228;2023-04-01T03:50:56;9.10;99.90
50969;DHT22;36982;51.474;7.228;2023-04-01T03:53:22;9.10;99.90
50969;DHT22;36982;51.474;7.228;2023-04-01T03:55:48;9.10;99.90
50969;DHT22;36982;51.474;7.228;2023-04-01T03:58:14;9.10;99.90
50969;DHT22;36982;51.474;7.228;2023-04-01T04:00:39;9.20;99.90
50969;DHT22;36982;51.474;7.228;2023-04-01T04:03:06;9.20;99.90
50969;DHT22;36982;51.474;7.228;2023-04-01T04:05:32;9.20;99.90
50969;DHT22;36982;51.474;7.228;2023-04-01T04:07:57;9.10;99.90
50969;DHT22;36982;51.474;7.228;2023-04-01T04:10:23;9.20;99.90
50969;DHT22;36982;51.474;7.228;2023-04-01T04:12:50;9.20;99.90
50969;DHT22;36982;51.474;7.228;2023-04-01T04:15:16;9.20;99.90
50969;DHT22;36982;51.474;7.228;2023-04-01T04:17:42;9.20;99.90
50969;DHT22;36982;51.474;7.228;2023-04-01T04:20:08;9.20;99.90
50969;DHT22;36982;51.474;7.228;2023-04-01T04:22:34;9.10;99.90
50969;DHT22;36982;51.474;7.228;2023-04-01T04:24:59;9.10;99.90
50969;DHT22;36982;51.474;7.228;2023-04-01T04:27:25;9.10;99.90
50969;DHT22;36982;51.474;7.228;2023-04-01T04:29:51;9.10;99.90
50969;DHT22;36982;51.474;7.228;2023-04-01T04:32:16;9.10;99.90
50969;DHT22;36982;51.474;7.228;2023-04-01T04:34:42;9.10;99.90
50969;DHT22;36982;51.474;7.228;2023-04-01T04:37:07;9.10;99.90
50969;DHT22;36982;51.474;7.228;2023-04-01T04:39:33;9.10;99.90
50969;DHT22;36982;51.474;7.228;2023-04-01T04:41:59;9.10;99.90
50969;DHT22;36982;51.474;7.228;2023-04-01T04:44:24;9.20;99.90
50969;DHT22;36982;51.474;7.228;2023-04-01T04:46:50;9.20;99.90
50969;DHT22;36982;51.474;7.228;2023-04-01T04:49:16;9.20;99.90
50969;DHT22;36982;51.474;7.228;2023-04-01T04:51:41;9.20;99.90
50969;DHT22;36982;51.474;7.228;2023-04-01T04:54:07;9.20;99.90
50969;DHT22;36982;51.474;7.228;2023-04-01T04:56:33;9.20;99.90
50969;DHT22;36982;51.474;7.228;2023-04-01T04:58:59;9.20;99.90
50969;DHT22;36982;51.474;7.228;2023-04-01T05:01:25;9.20;99.90
50969;DHT22;36982;51.474;7.228;2023-04-01T05:03:51;9.20;99.90
50969;DHT22;36982;51.474;7.228;2023-04-01T05:06:17;9.20;99.90
50969;DHT22;36982;51.474;7.228;2023-04-01T05:08:44;9.20;99.90
50969;DHT22;36982;51.474;7.228;2023-04-01T05:11:13;9.10;99.90
50969;DHT22;36982;51.474;7.228;2023-04-01T05:13:39;9.20;99.90
50969;DHT22;36982;51.474;7.228;2023-04-01T05:16:11;9.10;99.90
50969;DHT22;36982;51.474;7.228;2023-04-01T05:18:37;9.20;99.90
50969;DHT22;36982;51.474;7.228;2023-04-01T05:21:03;9.40;99.90
50969;DHT22;36982;51.474;7.228;2023-04-01T05:23:31;9.30;99.90
50969;DHT22;36982;51.474;7.228;2023-04-01T05:25:57;9.30;99.90
50969;DHT22;36982;51.474;7.228;2023-04-01T05:28:22;9.30;99.90
50969;DHT22;36982;51.474;7.228;2023-04-01T05:30:48;9.30;99.90
50969;DHT22;36982;51.474;7.228;2023-04-01T05:33:13;9.20;99.90
50969;DHT22;36982;51.474;7.228;2023-04-01T05:35:40;9.20;99.90
50969;DHT22;36982;51.474;7.228;2023-04-01T05:38:06;9.20;99.90
50969;DHT22;36982;51.474;7.228;2023-04-01T05:40:32;9.20;99.90
50969;DHT22;36982;51.474;7.228;2023-04-01T05:42:58;9.20;99.90
50969;DHT22;36982;51.474;7.228;2023-04-01T05:45:24;9.30;99.90
50969;DHT22;36982;51.474;7.228;2023-04-01T05:47:50;9.40;99.90
50969;DHT22;36982;51.474;7.228;2023-04-01T05:50:15;9.40;99.90
50969;DHT22;36982;51.474;7.228;2023-04-01T05:52:42;9.40;99.90
50969;DHT22;36982;51.474;7.228;2023-04-01T05:55:08;9.40;99.90
50969;DHT22;36982;51.474;7.228;2023-04-01T05:57:33;9.40;99.90
50969;DHT22;36982;51.474;7.228;2023-04-01T05:59:59;9.40;99.90
50969;DHT22;36982;51.474;7.228;2023-04-01T06:02:25;9.30;99.90
50969;DHT22;36982;51.474;7.228;2023-04-01T06:04:58;9.30;99.90
50969;DHT22;36982;51.474;7.228;2023-04-01T06:07:27;9.30;99.90
50969;DHT22;36982;51.474;7.228;2023-04-01T06:09:54;9.40;99.90
50969;DHT22;36982;51.474;7.228;2023-04-01T06:20:39;9.50;99.90
50969;DHT22;36982;51.474;7.228;2023-04-01T06:29:13;9.40;99.90
50969;DHT22;36982;51.474;7.228;2023-04-01T06:40:19;9.50;99.90
50969;DHT22;36982;51.474;7.228;2023-04-01T06:45:47;9.50;99.90
50969;DHT22;36982;51.474;7.228;2023-04-01T06:56:18;9.60;99.90
50969;DHT22;36982;51.474;7.228;2023-04-01T06:58:57;9.50;99.90
50969;DHT22;36982;51.474;7.228;2023-04-01T07:01:39;9.50;99.90
50969;DHT22;36982;51.474;7.228;2023-04-01T07:04:16;9.50;99.90
50969;DHT22;36982;51.474;7.228;2023-04-01T07:06:50;9.50;99.90
50969;DHT22;36982;51.474;7.228;2023-04-01T07:09:39;9.40;99.90
50969;DHT22;36982;51.474;7.228;2023-04-01T07:12:17;9.40;99.90
50969;DHT22;36982;51.474;7.228;2023-04-01T07:14:48;9.40;99.90
50969;DHT22;36982;51.474;7.228;2023-04-01T07:17:30;9.50;99.90
50969;DHT22;36982;51.474;7.228;2023-04-01T07:20:11;9.50;99.90
50969;DHT22;36982;51.474;7.228;2023-04-01T07:22:46;9.40;99.90
50969;DHT22;36982;51.474;7.228;2023-04-01T07:27:47;9.50;99.90
50969;DHT22;36982;51.474;7.228;2023-04-01T07:30:17;9.40;99.90
50969;DHT22;36982;51.474;7.228;2023-04-01T07:36:03;9.60;99.90
50969;DHT22;36982;51.474;7.228;2023-04-01T07:41:16;9.60;99.90
50969;DHT22;36982;51.474;7.228;2023-04-01T07:50:09;9.60;99.90
50969;DHT22;36982;51.474;7.228;2023-04-01T07:52:50;9.50;99.90
50969;DHT22;36982;51.474;7.228;2023-04-01T07:55:29;9.60;99.90
50969;DHT22;36982;51.474;7.228;2023-04-01T07:58:10;9.60;99.90
50969;DHT22;36982;51.474;7.228;2023-04-01T08:00:59;9.60;99.90
50969;DHT22;36982;51.474;7.228;2023-04-01T08:06:26;9.50;99.90
50969;DHT22;36982;51.474;7.228;2023-04-01T08:11:29;9.70;99.90
50969;DHT22;36982;51.474;7.228;2023-04-01T08:14:21;9.80;99.90
50969;DHT22;36982;51.474;7.228;2023-04-01T08:16:56;9.80;99.90
50969;DHT22;36982;51.474;7.228;2023-04-01T08:19:51;9.90;99.90
50969;DHT22;36982;51.474;7.228;2023-04-01T08:22:30;9.90;99.90
50969;DHT22;36982;51.474;7.228;2023-04-01T08:25:02;9.90;99.90
50969;DHT22;36982;51.474;7.228;2023-04-01T08:27:39;10.00;99.90
50969;DHT22;36982;51.474;7.228;2023-04-01T08:30:23;9.90;99.90
50969;DHT22;36982;51.474;7.228;2023-04-01T08:32:59;9.80;99.90
50969;DHT22;36982;51.474;7.228;2023-04-01T08:35:31;9.70;99.90
50969;DHT22;36982;51.474;7.228;2023-04-01T08:38:01;9.60;99.90
50969;DHT22;36982;51.474;7.228;2023-04-01T09:00:33;10.00;99.90
50969;DHT22;36982;51.474;7.228;2023-04-01T09:11:08;9.90;99.90
50969;DHT22;36982;51.474;7.228;2023-04-01T09:16:43;9.80;99.90
50969;DHT22;36982;51.474;7.228;2023-04-01T09:19:27;9.90;99.90
50969;DHT22;36982;51.474;7.228;2023-04-01T09:27:49;9.90;99.90
50969;DHT22;36982;51.474;7.228;2023-04-01T09:38:30;10.00;99.90
50969;DHT22;36982;51.474;7.228;2023-04-01T09:43:55;10.00;99.90
50969;DHT22;36982;51.474;7.228;2023-04-01T09:46:37;10.00;99.90
50969;DHT22;36982;51.474;7.228;2023-04-01T09:49:20;10.00;99.90
50969;DHT22;36982;51.474;7.228;2023-04-01T09:52:15;10.00;99.90
50969;DHT22;36982;51.474;7.228;2023-04-01T10:11:45;10.30;99.90
50969;DHT22;36982;51.474;7.228;2023-04-01T10:50:25;10.60;99.90
50969;DHT22;36982;51.474;7.228;2023-04-01T11:07:28;10.60;99.90
50969;DHT22;36982;51.474;7.228;2023-04-01T11:25:05;10.40;99.90
50969;DHT22;36982;51.474;7.228;2023-04-01T11:33:04;10.50;99.90
50969;DHT22;36982;51.474;7.228;2023-04-01T11:38:26;10.40;99.90
50969;DHT22;36982;51.474;7.228;2023-04-01T11:41:19;10.40;99.90
50969;DHT22;36982;51.474;7.228;2023-04-01T11:46:48;10.40;99.90
50969;DHT22;36982;51.474;7.228;2023-04-01T11:54:31;10.50;99.90
50969;DHT22;36982;51.474;7.228;2023-04-01T12:06:05;10.60;99.90
50969;DHT22;36982;51.474;7.228;2023-04-01T12:23:13;11.00;99.90
50969;DHT22;36982;51.474;7.228;2023-04-01T12:31:24;10.90;99.90
50969;DHT22;36982;51.474;7.228;2023-04-01T12:45:00;10.70;99.90
50969;DHT22;36982;51.474;7.228;2023-04-01T12:55:45;10.90;99.90
50969;DHT22;36982;51.474;7.228;2023-04-01T13:18:11;10.80;99.90
50969;DHT22;36982;51.474;7.228;2023-04-01T13:20:47;10.80;99.90
50969;DHT22;36982;51.474;7.228;2023-04-01T13:23:35;10.80;99.90
50969;DHT22;36982;51.474;7.228;2023-04-01T13:31:37;10.70;99.90
50969;DHT22;36982;51.474;7.228;2023-04-01T13:44:48;10.70;99.90
50969;DHT22;36982;51.474;7.228;2023-04-01T13:47:39;10.70;99.90
50969;DHT22;36982;51.474;7.228;2023-04-01T14:04:20;11.10;99.90
50969;DHT22;36982;51.474;7.228;2023-04-01T14:07:13;11.00;99.90
50969;DHT22;36982;51.474;7.228;2023-04-01T14:12:49;10.90;99.90
50969;DHT22;36982;51.474;7.228;2023-04-01T14:24:08;10.60;99.90
50969;DHT22;36982;51.474;7.228;2023-04-01T14:29:29;10.50;99.90
50969;DHT22;36982;51.474;7.228;2023-04-01T14:32:15;10.60;99.90
50969;DHT22;36982;51.474;7.228;2023-04-01T14:37:39;10.70;99.90
50969;DHT22;36982;51.474;7.228;2023-04-01T14:43:22;10.70;99.90
50969;DHT22;36982;51.474;7.228;2023-04-01T14:49:02;10.60;99.90
50969;DHT22;36982;51.474;7.228;2023-04-01T14:51:33;10.50;99.90
50969;DHT22;36982;51.474;7.228;2023-04-01T14:56:37;10.50;99.90
50969;DHT22;36982;51.474;7.228;2023-04-01T15:07:41;10.70;99.90
50969;DHT22;36982;51.474;7.228;2023-04-01T15:16:27;10.80;99.90
50969;DHT22;36982;51.474;7.228;2023-04-01T15:22:20;10.80;99.90
50969;DHT22;36982;51.474;7.228;2023-04-01T15:25:25;10.70;99.90
50969;DHT22;36982;51.474;7.228;2023-04-01T15:30:45;10.60;99.90
50969;DHT22;36982;51.474;7.228;2023-04-01T15:33:53;10.60;99.90
50969;DHT22;36982;51.474;7.228;2023-04-01T15:36:20;10.50;99.90
50969;DHT22;36982;51.474;7.228;2023-04-01T15:38:53;10.50;99.90
50969;DHT22;36982;51.474;7.228;2023-04-01T15:41:41;10.60;99.90
50969;DHT22;36982;51.474;7.228;2023-04-01T15:53:23;10.60;99.90
50969;DHT22;36982;51.474;7.228;2023-04-01T15:59:41;10.60;99.90
50969;DHT22;36982;51.474;7.228;2023-04-01T16:05:42;10.60;99.90
50969;DHT22;36982;51.474;7.228;2023-04-01T16:17:18;10.50;99.90
50969;DHT22;36982;51.474;7.228;2023-04-01T16:19:55;10.50;99.90
50969;DHT22;36982;51.474;7.228;2023-04-01T16:22:33;10.50;99.90
50969;DHT22;36982;51.474;7.228;2023-04-01T16:27:53;10.60;99.90
50969;DHT22;36982;51.474;7.228;2023-04-01T16:30:44;10.60;99.90
50969;DHT22;36982;51.474;7.228;2023-04-01T16:41:11;10.40;99.90
50969;DHT22;36982;51.474;7.228;2023-04-01T16:43:49;10.50;99.90
50969;DHT22;36982;51.474;7.228;2023-04-01T16:46:39;10.50;99.90
50969;DHT22;36982;51.474;7.228;2023-04-01T16:51:48;10.50;99.90
50969;DHT22;36982;51.474;7.228;2023-04-01T16:58:00;10.50;99.90
50969;DHT22;36982;51.474;7.228;2023-04-01T17:01:08;10.40;99.90
50969;DHT22;36982;51.474;7.228;2023-04-01T17:03:26;10.30;99.90
50969;DHT22;36982;51.474;7.228;2023-04-01T17:06:40;10.30;99.90
50969;DHT22;36982;51.474;7.228;2023-04-01T17:12:10;10.30;99.90
50969;DHT22;36982;51.474;7.228;2023-04-01T17:14:45;10.30;99.90
50969;DHT22;36982;51.474;7.228;2023-04-01T17:17:27;10.30;99.90
50969;DHT22;36982;51.474;7.228;2023-04-01T17:43:04;10.50;99.90
50969;DHT22;36982;51.474;7.228;2023-04-01T17:45:55;10.50;99.90
50969;DHT22;36982;51.474;7.228;2023-04-01T17:48:40;10.50;99.90
50969;DHT22;36982;51.474;7.228;2023-04-01T17:51:19;10.50;99.90
50969;DHT22;36982;51.474;7.228;2023-04-01T18:05:26;10.30;99.90
50969;DHT22;36982;51.474;7.228;2023-04-01T18:08:17;10.30;99.90
50969;DHT22;36982;51.474;7.228;2023-04-01T18:11:10;10.30;99.90
50969;DHT22;36982;51.474;7.228;2023-04-01T18:13:58;10.20;99.90
50969;DHT22;36982;51.474;7.228;2023-04-01T18:16:39;10.30;99.90
50969;DHT22;36982;51.474;7.228;2023-04-01T18:19:22;10.30;99.90
50969;DHT22;36982;51.474;7.228;2023-04-01T18:21:53;10.30;99.90
50969;DHT22;36982;51.474;7.228;2023-04-01T18:27:36;10.30;99.90
50969;DHT22;36982;51.474;7.228;2023-04-01T18:30:17;10.30;99.90
50969;DHT22;36982;51.474;7.228;2023-04-01T18:32:51;10.20;99.90
50969;DHT22;36982;51.474;7.228;2023-04-01T18:38:15;10.30;99.90
50969;DHT22;36982;51.474;7.228;2023-04-01T18:40:51;10.30;99.90
50969;DHT22;36982;51.474;7.228;2023-04-01T18:46:03;10.40;99.90
50969;DHT22;36982;51.474;7.228;2023-04-01T18:51:21;10.30;99.90
50969;DHT22;36982;51.474;7.228;2023-04-01T18:54:04;10.40;99.90
50969;DHT22;36982;51.474;7.228;2023-04-01T18:56:35;10.40;99.90
50969;DHT22;36982;51.474;7.228;2023-04-01T18:59:31;10.40;99.90
50969;DHT22;36982;51.474;7.228;2023-04-01T19:07:53;10.20;99.90
50969;DHT22;36982;51.474;7.228;2023-04-01T19:21:53;10.30;99.90
50969;DHT22;36982;51.474;7.228;2023-04-01T19:27:34;10.20;99.90
50969;DHT22;36982;51.474;7.228;2023-04-01T19:36:14;10.10;99.90
50969;DHT22;36982;51.474;7.228;2023-04-01T19:41:32;10.10;99.90
50969;DHT22;36982;51.474;7.228;2023-04-01T19:46:58;9.90;99.90
50969;DHT22;36982;51.474;7.228;2023-04-01T19:49:50;9.80;99.90
50969;DHT22;36982;51.474;7.228;2023-04-01T19:52:33;9.70;99.90
50969;DHT22;36982;51.474;7.228;2023-04-01T19:58:25;9.70;99.90
50969;DHT22;36982;51.474;7.228;2023-04-01T20:00:54;9.60;99.90
50969;DHT22;36982;51.474;7.228;2023-04-01T20:14:48;9.30;99.90
50969;DHT22;36982;51.474;7.228;2023-04-01T20:17:38;9.20;99.90
50969;DHT22;36982;51.474;7.228;2023-04-01T20:31:01;9.10;99.90
50969;DHT22;36982;51.474;7.228;2023-04-01T20:33:47;9.10;99.90
50969;DHT22;36982;51.474;7.228;2023-04-01T20:36:43;9.10;99.90
50969;DHT22;36982;51.474;7.228;2023-04-01T20:45:18;9.10;99.90
50969;DHT22;36982;51.474;7.228;2023-04-01T20:48:21;9.10;99.90
50969;DHT22;36982;51.474;7.228;2023-04-01T20:51:03;9.00;99.90
50969;DHT22;36982;51.474;7.228;2023-04-01T20:59:11;8.90;99.90
50969;DHT22;36982;51.474;7.228;2023-04-01T21:10:12;8.80;99.90
50969;DHT22;36982;51.474;7.228;2023-04-01T21:12:54;8.70;99.90
50969;DHT22;36982;51.474;7.228;2023-04-01T21:33:59;8.40;99.90
50969;DHT22;36982;51.474;7.228;2023-04-01T21:36:42;8.40;99.90
50969;DHT22;36982;51.474;7.228;2023-04-01T21:39:31;8.30;99.90
50969;DHT22;36982;51.474;7.228;2023-04-01T21:42:29;8.30;99.90
50969;DHT22;36982;51.474;7.228;2023-04-01T21:50:50;8.10;99.90
50969;DHT22;36982;51.474;7.228;2023-04-01T22:05:36;7.80;99.90
50969;DHT22;36982;51.474;7.228;2023-04-01T22:08:06;7.80;99.90
50969;DHT22;36982;51.474;7.228;2023-04-01T22:10:48;7.80;99.90
50969;DHT22;36982;51.474;7.228;2023-04-01T22:13:23;7.70;99.90
50969;DHT22;36982;51.474;7.228;2023-04-01T22:22:23;7.60;99.90
50969;DHT22;36982;51.474;7.228;2023-04-01T22:24:58;7.50;99.90
50969;DHT22;36982;51.474;7.228;2023-04-01T22:27:32;7.50;99.90
50969;DHT22;36982;51.474;7.228;2023-04-01T22:30:24;7.50;99.90
50969;DHT22;36982;51.474;7.228;2023-04-01T22:33:08;7.50;99.90
50969;DHT22;36982;51.474;7.228;2023-04-01T22:41:16;7.40;99.90
50969;DHT22;36982;51.474;7.228;2023-04-01T22:43:44;7.40;99.90
50969;DHT22;36982;51.474;7.228;2023-04-01T22:51:50;7.30;99.90
50969;DHT22;36982;51.474;7.228;2023-04-01T22:56:52;7.20;99.90
50969;DHT22;36982;51.474;7.228;2023-04-01T23:02:33;7.20;99.90
50969;DHT22;36982;51.474;7.228;2023-04-01T23:05:02;7.20;99.90
50969;DHT22;36982;51.474;7.228;2023-04-01T23:10:04;7.20;99.90
50969;DHT22;36982;51.474;7.228;2023-04-01T23:12:32;7.20;99.90
50969;DHT22;36982;51.474;7.228;2023-04-01T23:15:00;7.20;99.90
50969;DHT22;36982;51.474;7.228;2023-04-01T23:36:02;7.00;99.90
50969;DHT22;36982;51.474;7.228;2023-04-01T23:38:37;7.00;99.90
50969;DHT22;36982;51.474;7.228;2023-04-01T23:41:04;7.00;99.90
50969;DHT22;36982;51.474;7.228;2023-04-01T23:43:33;6.90;99.90
50969;DHT22;36982;51.474;7.228;2023-04-01T23:46:03;6.90;99.90
50969;DHT22;36982;51.474;7.228;2023-04-01T23:48:42;6.80;99.90
50969;DHT22;36982;51.474;7.228;2023-04-01T23:51:18;6.80;99.90
50969;DHT22;36982;51.474;7.228;2023-04-01T23:53:47;6.80;99.90
50969;DHT22;36982;51.474;7.228;2023-04-01T23:56:16;6.70;99.90
50969;DHT22;36982;51.474;7.228;2023-04-01T23:58:49;6.70;99.90
